createdAt,value
2019-01-22T00:00:11.728Z,-11.40
2019-01-22T00:02:40.170Z,-11.40
2019-01-22T00:05:09.628Z,-11.50
2019-01-22T00:07:38.077Z,-11.50
2019-01-22T00:10:09.185Z,-11.50
2019-01-22T00:12:37.690Z,-11.50
2019-01-22T00:15:09.537Z,-11.60
2019-01-22T00:17:38.512Z,-11.50
2019-01-22T00:20:09.553Z,-11.50
2019-01-22T00:22:37.985Z,-11.40
2019-01-22T00:25:09.569Z,-11.40
2019-01-22T00:27:38.078Z,-11.60
2019-01-22T00:30:09.590Z,-11.60
2019-01-22T00:32:38.034Z,-11.60
2019-01-22T00:35:06.707Z,-11.70
2019-01-22T00:37:35.154Z,-11.70
2019-01-22T00:40:04.467Z,-11.70
2019-01-22T00:42:32.904Z,-11.70
2019-01-22T00:45:01.613Z,-11.70
2019-01-22T00:47:30.069Z,-11.50
2019-01-22T00:49:58.501Z,-11.60
2019-01-22T00:52:26.936Z,-11.50
2019-01-22T00:54:55.378Z,-11.50
2019-01-22T00:57:23.808Z,-11.50
2019-01-22T00:59:52.261Z,-11.50
2019-01-22T01:02:20.706Z,-11.50
2019-01-22T01:04:49.176Z,-11.60
2019-01-22T01:07:17.610Z,-11.60
2019-01-22T01:09:46.059Z,-11.50
2019-01-22T01:12:14.557Z,-11.60
2019-01-22T01:14:43.029Z,-11.70
2019-01-22T01:17:11.457Z,-11.70
2019-01-22T01:19:39.958Z,-11.70
2019-01-22T01:22:08.437Z,-11.60
2019-01-22T01:24:36.954Z,-11.50
2019-01-22T01:27:05.401Z,-11.50
2019-01-22T01:29:33.845Z,-11.60
2019-01-22T01:32:02.307Z,-11.60
2019-01-22T01:34:30.737Z,-11.60
2019-01-22T01:36:59.205Z,-11.50
2019-01-22T01:39:27.657Z,-11.50
2019-01-22T01:41:56.103Z,-11.60
2019-01-22T01:44:24.543Z,-11.60
2019-01-22T01:46:53.072Z,-11.60
2019-01-22T01:49:21.509Z,-11.60
2019-01-22T01:51:50.110Z,-11.50
2019-01-22T01:54:18.561Z,-11.50
2019-01-22T01:56:47.164Z,-11.40
2019-01-22T01:59:15.624Z,-11.50
2019-01-22T02:01:44.128Z,-11.50
2019-01-22T02:04:12.587Z,-11.50
2019-01-22T02:06:41.025Z,-11.50
2019-01-22T02:09:09.565Z,-11.50
2019-01-22T02:11:38.380Z,-11.50
2019-01-22T02:14:06.904Z,-11.50
2019-01-22T02:16:38.410Z,-11.30
2019-01-22T02:19:09.944Z,-11.30
2019-01-22T02:21:50.404Z,-11.40
2019-01-22T02:24:38.414Z,-11.30
2019-01-22T02:27:21.770Z,-11.30
2019-01-22T02:30:07.864Z,-11.10
2019-01-22T02:32:54.614Z,-11.00
2019-01-22T02:35:34.686Z,-11.00
2019-01-22T02:38:34.819Z,-11.00
2019-01-22T02:41:18.060Z,-11.00
2019-01-22T02:43:52.318Z,-11.10
2019-01-22T02:46:30.030Z,-11.00
2019-01-22T02:49:07.153Z,-11.00
2019-01-22T02:51:47.471Z,-10.90
2019-01-22T02:54:17.046Z,-10.80
2019-01-22T02:57:06.326Z,-10.90
2019-01-22T03:00:01.592Z,-10.90
2019-01-22T03:02:35.835Z,-10.90
2019-01-22T03:05:22.657Z,-10.90
2019-01-22T03:07:56.821Z,-11.00
2019-01-22T03:10:29.175Z,-10.80
2019-01-22T03:13:19.838Z,-10.80
2019-01-22T03:15:59.886Z,-10.80
2019-01-22T03:18:50.806Z,-10.90
2019-01-22T03:21:41.319Z,-10.80
2019-01-22T03:24:29.193Z,-10.80
2019-01-22T03:27:12.378Z,-10.70
2019-01-22T03:29:49.622Z,-10.80
2019-01-22T03:32:45.356Z,-10.90
2019-01-22T03:35:34.565Z,-10.80
2019-01-22T03:38:20.928Z,-10.90
2019-01-22T03:41:10.676Z,-10.90
2019-01-22T03:43:51.116Z,-10.80
2019-01-22T03:46:28.127Z,-10.80
2019-01-22T03:49:11.279Z,-10.80
2019-01-22T03:51:57.717Z,-10.80
2019-01-22T03:54:53.211Z,-10.70
2019-01-22T03:57:33.078Z,-10.70
2019-01-22T04:00:01.591Z,-10.70
2019-01-22T04:02:30.690Z,-10.70
2019-01-22T04:04:59.131Z,-10.70
2019-01-22T04:07:27.867Z,-10.70
2019-01-22T04:09:58.463Z,-10.80
2019-01-22T04:12:26.893Z,-10.80
2019-01-22T04:14:55.522Z,-10.70
2019-01-22T04:17:23.959Z,-10.70
2019-01-22T04:19:52.409Z,-10.70
2019-01-22T04:22:24.800Z,-10.70
2019-01-22T04:24:56.334Z,-10.50
2019-01-22T04:27:39.550Z,-10.50
2019-01-22T04:30:22.953Z,-10.40
2019-01-22T04:33:00.219Z,-10.30
2019-01-22T04:35:34.698Z,-10.20
2019-01-22T04:38:21.435Z,-10.20
2019-01-22T04:41:01.794Z,-10.20
2019-01-22T04:43:38.979Z,-10.10
2019-01-22T04:46:13.192Z,-10.00
2019-01-22T04:48:53.608Z,-9.80
2019-01-22T04:51:28.032Z,-9.80
2019-01-22T04:54:23.687Z,-9.70
2019-01-22T04:57:00.263Z,-9.70
2019-01-22T04:59:31.764Z,-9.60
2019-01-22T05:02:24.360Z,-9.50
2019-01-22T05:05:07.403Z,-9.40
2019-01-22T05:07:47.725Z,-9.40
2019-01-22T05:10:30.962Z,-9.40
2019-01-22T05:13:08.120Z,-9.30
2019-01-22T05:15:42.450Z,-9.40
2019-01-22T05:18:16.882Z,-9.40
2019-01-22T05:21:05.058Z,-9.50
2019-01-22T05:23:39.453Z,-9.50
2019-01-22T05:26:16.917Z,-9.50
2019-01-22T05:29:00.145Z,-9.50
2019-01-22T05:31:31.648Z,-9.40
2019-01-22T05:34:05.842Z,-9.40
2019-01-22T05:36:43.417Z,-9.30
2019-01-22T05:39:20.598Z,-9.30
2019-01-22T05:41:55.089Z,-9.30
2019-01-22T05:44:29.225Z,-9.30
2019-01-22T05:47:09.526Z,-9.30
2019-01-22T05:49:43.742Z,-9.10
2019-01-22T05:52:18.119Z,-9.00
2019-01-22T05:54:52.278Z,-9.10
2019-01-22T05:57:22.060Z,-9.00
2019-01-22T06:00:05.114Z,-8.80
2019-01-22T06:02:36.651Z,-8.80
2019-01-22T06:05:31.418Z,-8.70
2019-01-22T06:08:08.786Z,-8.60
2019-01-22T06:10:57.733Z,-8.50
2019-01-22T06:13:41.118Z,-8.20
2019-01-22T06:16:30.211Z,-8.10
2019-01-22T06:19:04.661Z,-7.80
2019-01-22T06:21:52.355Z,-7.80
2019-01-22T06:24:35.656Z,-7.50
2019-01-22T06:27:07.145Z,-7.10
2019-01-22T06:29:57.834Z,-6.90
2019-01-22T06:32:29.342Z,-7.10
2019-01-22T06:35:06.914Z,-7.10
2019-01-22T06:37:56.115Z,-7.30
2019-01-22T06:40:49.858Z,-7.30
2019-01-22T06:43:21.562Z,-7.20
2019-01-22T06:45:55.711Z,-7.30
2019-01-22T06:48:35.822Z,-7.10
2019-01-22T06:51:16.480Z,-7.30
2019-01-22T06:53:53.817Z,-7.50
2019-01-22T06:56:31.099Z,-7.50
2019-01-22T06:59:20.541Z,-7.40
2019-01-22T07:02:10.232Z,-7.20
2019-01-22T07:04:41.746Z,-7.20
2019-01-22T07:07:30.927Z,-7.10
2019-01-22T07:10:20.077Z,-6.70
2019-01-22T07:13:03.434Z,-6.70
2019-01-22T07:15:44.149Z,-6.60
2019-01-22T07:18:30.565Z,-6.60
2019-01-22T07:21:07.845Z,-6.80
2019-01-22T07:23:48.145Z,-7.00
2019-01-22T07:26:25.449Z,-7.10
2019-01-22T07:28:59.634Z,-7.20
2019-01-22T07:31:31.145Z,-7.30
2019-01-22T07:34:16.777Z,-7.00
2019-01-22T07:37:02.970Z,-6.90
2019-01-22T07:39:56.288Z,-7.00
2019-01-22T07:42:48.573Z,-7.10
2019-01-22T07:45:20.075Z,-7.10
2019-01-22T07:47:51.594Z,-7.00
2019-01-22T07:50:23.097Z,-7.00
2019-01-22T07:52:57.394Z,-6.90
2019-01-22T07:55:51.397Z,-6.80
2019-01-22T07:58:45.349Z,-6.70
2019-01-22T08:01:31.692Z,-6.40
2019-01-22T08:04:07.445Z,-6.10
2019-01-22T08:06:40.585Z,-6.00
2019-01-22T08:09:17.828Z,-5.90
2019-01-22T08:12:01.338Z,-5.80
2019-01-22T08:14:44.491Z,-5.80
2019-01-22T08:17:39.809Z,-5.70
2019-01-22T08:20:20.021Z,-5.40
2019-01-22T08:23:13.931Z,-5.20
2019-01-22T08:26:15.458Z,-5.10
2019-01-22T08:29:01.621Z,-5.00
2019-01-22T08:31:38.842Z,-4.80
2019-01-22T08:34:22.856Z,-4.50
2019-01-22T08:37:16.671Z,-4.50
2019-01-22T08:39:48.202Z,-4.30
2019-01-22T08:42:25.604Z,-4.20
2019-01-22T08:44:57.106Z,-4.00
2019-01-22T08:47:44.814Z,-3.90
2019-01-22T08:50:33.998Z,-3.70
2019-01-22T08:53:05.536Z,-3.60
2019-01-22T08:55:37.036Z,-3.50
2019-01-22T08:58:19.916Z,-3.50
2019-01-22T09:01:22.522Z,-3.50
2019-01-22T09:03:56.621Z,-3.50
2019-01-22T09:06:49.073Z,-3.60
2019-01-22T09:09:35.281Z,-3.60
2019-01-22T09:12:32.253Z,-3.60
2019-01-22T09:15:09.643Z,-3.60
2019-01-22T09:17:58.977Z,-3.60
2019-01-22T09:20:42.329Z,-3.60
2019-01-22T09:23:19.796Z,-3.70
2019-01-22T09:25:56.920Z,-3.60
2019-01-22T09:28:46.192Z,-3.60
2019-01-22T09:31:32.477Z,-3.60
2019-01-22T09:34:21.789Z,-3.50
2019-01-22T09:36:59.246Z,-3.50
2019-01-22T09:39:27.663Z,-3.50
2019-01-22T09:41:56.092Z,-3.50
2019-01-22T09:44:24.535Z,-3.50
2019-01-22T09:46:52.965Z,-3.40
2019-01-22T09:49:21.422Z,-3.40
2019-01-22T09:51:49.861Z,-3.40
2019-01-22T09:54:18.358Z,-3.40
2019-01-22T09:56:46.785Z,-3.40
2019-01-22T09:59:15.216Z,-3.30
2019-01-22T10:01:43.650Z,-3.30
2019-01-22T10:04:12.092Z,-3.30
2019-01-22T10:06:40.509Z,-3.20
2019-01-22T10:09:10.289Z,-3.20
2019-01-22T10:11:38.791Z,-3.10
2019-01-22T10:14:08.539Z,-3.10
2019-01-22T10:16:37.144Z,-3.10
2019-01-22T10:19:05.778Z,-3.10
2019-01-22T10:21:34.257Z,-3.10
2019-01-22T10:24:02.680Z,-3.10
2019-01-22T10:26:31.105Z,-3.10
2019-01-22T10:28:59.550Z,-3.00
2019-01-22T10:31:27.990Z,-3.00
2019-01-22T10:33:56.538Z,-3.00
2019-01-22T10:36:24.951Z,-3.00
2019-01-22T10:38:53.378Z,-2.90
2019-01-22T10:41:21.810Z,-2.90
2019-01-22T10:43:50.239Z,-2.80
2019-01-22T10:46:18.683Z,-2.70
2019-01-22T10:48:47.109Z,-2.70
2019-01-22T10:51:15.559Z,-2.80
2019-01-22T10:53:43.981Z,-2.80
2019-01-22T10:56:12.437Z,-2.90
2019-01-22T10:58:40.873Z,-2.90
2019-01-22T11:01:09.309Z,-2.90
2019-01-22T11:03:37.752Z,-2.90
2019-01-22T11:06:06.291Z,-2.90
2019-01-22T11:08:34.724Z,-3.00
2019-01-22T11:11:04.047Z,-3.00
2019-01-22T11:13:32.579Z,-3.10
2019-01-22T11:16:01.015Z,-3.20
2019-01-22T11:18:29.466Z,-3.30
2019-01-22T11:20:57.899Z,-3.40
2019-01-22T11:23:26.367Z,-3.40
2019-01-22T11:25:54.793Z,-3.40
2019-01-22T11:28:23.364Z,-3.30
2019-01-22T11:30:51.788Z,-3.20
2019-01-22T11:33:20.215Z,-3.30
2019-01-22T11:35:48.654Z,-3.30
2019-01-22T11:38:17.081Z,-3.20
2019-01-22T11:40:45.618Z,-3.40
2019-01-22T11:43:14.035Z,-3.40
2019-01-22T11:45:42.492Z,-3.50
2019-01-22T11:48:11.273Z,-3.60
2019-01-22T11:50:39.727Z,-3.60
2019-01-22T11:53:08.262Z,-3.60
2019-01-22T11:55:36.727Z,-3.60
2019-01-22T11:58:05.215Z,-3.60
2019-01-22T12:00:37.338Z,-3.50
2019-01-22T12:03:05.841Z,-3.30
2019-01-22T12:05:34.366Z,-3.20
2019-01-22T12:08:02.801Z,-3.10
2019-01-22T12:10:31.242Z,-2.90
2019-01-22T12:12:59.683Z,-2.80
2019-01-22T12:15:28.182Z,-2.70
2019-01-22T12:17:56.621Z,-2.60
2019-01-22T12:20:27.885Z,-2.60
2019-01-22T12:22:56.813Z,-2.50
2019-01-22T12:25:25.284Z,-2.40
2019-01-22T12:27:53.779Z,-2.40
2019-01-22T12:30:27.913Z,-2.40
2019-01-22T12:32:56.421Z,-2.40
2019-01-22T12:35:24.894Z,-2.50
2019-01-22T12:37:53.415Z,-2.60
2019-01-22T12:40:24.266Z,-2.70
2019-01-22T12:42:53.145Z,-2.80
2019-01-22T12:45:23.820Z,-2.80
2019-01-22T12:47:52.399Z,-2.90
2019-01-22T12:50:25.877Z,-2.80
2019-01-22T12:52:53.674Z,-2.70
2019-01-22T12:55:22.175Z,-2.80
2019-01-22T12:57:50.700Z,-2.80
2019-01-22T13:00:22.251Z,-2.70
2019-01-22T13:02:51.044Z,-2.80
2019-01-22T13:05:25.624Z,-2.70
2019-01-22T13:07:54.121Z,-2.60
2019-01-22T13:10:22.630Z,-2.70
2019-01-22T13:12:51.081Z,-2.80
2019-01-22T13:15:19.522Z,-3.00
2019-01-22T13:17:47.985Z,-3.40
2019-01-22T13:20:19.606Z,-3.50
2019-01-22T13:22:48.218Z,-3.60
2019-01-22T13:25:17.032Z,-3.80
2019-01-22T13:27:45.575Z,-3.90
2019-01-22T13:30:19.773Z,-4.00
2019-01-22T13:32:48.343Z,-4.10
2019-01-22T13:35:16.840Z,-4.30
2019-01-22T13:37:45.302Z,-4.30
2019-01-22T13:40:15.480Z,-4.40
2019-01-22T13:42:44.236Z,-4.50
2019-01-22T13:45:27.411Z,-4.50
2019-01-22T13:47:56.792Z,-4.40
2019-01-22T13:50:25.359Z,-4.30
2019-01-22T13:52:53.796Z,-4.40
2019-01-22T13:55:25.057Z,-4.30
2019-01-22T13:57:53.551Z,-4.30
2019-01-22T14:00:24.034Z,-4.40
2019-01-22T14:02:52.997Z,-4.50
2019-01-22T14:05:21.521Z,-4.50
2019-01-22T14:07:50.042Z,-4.70
2019-01-22T14:10:19.693Z,-4.70
2019-01-22T14:12:48.122Z,-4.90
2019-01-22T14:15:31.173Z,-4.90
2019-01-22T14:17:59.606Z,-5.10
2019-01-22T14:20:28.047Z,-5.50
2019-01-22T14:22:56.501Z,-5.70
2019-01-22T14:25:24.965Z,-5.90
2019-01-22T14:27:53.395Z,-6.10
2019-01-22T14:30:27.469Z,-6.20
2019-01-22T14:32:55.898Z,-6.30
2019-01-22T14:35:24.356Z,-6.40
2019-01-22T14:37:52.855Z,-6.50
2019-01-22T14:40:21.386Z,-6.60
2019-01-22T14:42:49.831Z,-6.60
2019-01-22T14:45:19.733Z,-6.70
2019-01-22T14:47:48.170Z,-6.70
2019-01-22T14:50:19.436Z,-6.80
2019-01-22T14:52:47.884Z,-6.90
2019-01-22T14:55:16.446Z,-6.90
2019-01-22T14:57:45.123Z,-6.90
2019-01-22T15:00:16.277Z,-7.00
2019-01-22T15:02:44.744Z,-7.10
2019-01-22T15:05:13.628Z,-7.10
2019-01-22T15:07:42.070Z,-7.10
2019-01-22T15:10:13.266Z,-7.10
2019-01-22T15:12:41.716Z,-7.20
2019-01-22T15:15:12.676Z,-7.20
2019-01-22T15:17:41.195Z,-7.30
2019-01-22T15:20:22.008Z,-7.30
2019-01-22T15:22:50.481Z,-7.30
2019-01-22T15:25:18.914Z,-7.30
2019-01-22T15:27:47.365Z,-7.30
2019-01-22T15:30:18.702Z,-7.30
2019-01-22T15:32:47.158Z,-7.30
2019-01-22T15:35:15.593Z,-7.30
2019-01-22T15:37:44.074Z,-7.30
2019-01-22T15:40:15.617Z,-7.30
2019-01-22T15:42:44.047Z,-7.30
2019-01-22T15:45:12.631Z,-7.30
2019-01-22T15:47:41.074Z,-7.30
2019-01-22T15:50:15.361Z,-7.30
2019-01-22T15:52:43.799Z,-7.40
2019-01-22T15:55:32.964Z,-7.40
2019-01-22T15:58:01.412Z,-7.40
2019-01-22T16:00:30.265Z,-7.40
2019-01-22T16:02:58.790Z,-7.50
2019-01-22T16:05:27.405Z,-7.50
2019-01-22T16:07:55.857Z,-7.40
2019-01-22T16:10:24.310Z,-7.50
2019-01-22T16:12:52.761Z,-7.50
2019-01-22T16:15:22.759Z,-7.50
2019-01-22T16:17:51.638Z,-7.50
2019-01-22T16:20:22.595Z,-7.40
2019-01-22T16:22:51.257Z,-7.50
2019-01-22T16:25:19.902Z,-7.40
2019-01-22T16:27:48.333Z,-7.40
2019-01-22T16:30:22.082Z,-7.40
2019-01-22T16:32:50.498Z,-7.40
2019-01-22T16:35:20.569Z,-7.30
2019-01-22T16:37:49.079Z,-7.30
2019-01-22T16:40:17.682Z,-7.30
2019-01-22T16:42:46.754Z,-7.20
2019-01-22T16:45:23.701Z,-7.20
2019-01-22T16:47:52.143Z,-7.20
2019-01-22T16:50:20.579Z,-7.20
2019-01-22T16:52:49.073Z,-7.20
2019-01-22T16:55:20.518Z,-7.20
2019-01-22T16:57:48.954Z,-7.20
2019-01-22T17:00:31.069Z,-7.10
2019-01-22T17:02:59.534Z,-7.10
2019-01-22T17:05:27.967Z,-7.10
2019-01-22T17:07:56.412Z,-7.10
2019-01-22T17:10:24.863Z,-7.10
2019-01-22T17:12:53.323Z,-7.10
2019-01-22T17:15:21.749Z,-7.00
2019-01-22T17:17:50.182Z,-7.00
2019-01-22T17:20:24.347Z,-7.10
2019-01-22T17:22:52.761Z,-7.00
2019-01-22T17:25:21.221Z,-7.10
2019-01-22T17:27:49.661Z,-7.00
2019-01-22T17:30:20.615Z,-7.00
2019-01-22T17:32:56.414Z,-7.00
2019-01-22T17:35:24.926Z,-7.00
2019-01-22T17:37:53.446Z,-6.90
2019-01-22T17:40:21.912Z,-6.90
2019-01-22T17:42:50.341Z,-6.90
2019-01-22T17:45:21.105Z,-6.90
2019-01-22T17:47:49.605Z,-6.90
2019-01-22T17:50:18.332Z,-6.90
2019-01-22T17:52:46.763Z,-6.90
2019-01-22T17:55:15.203Z,-6.90
2019-01-22T17:57:43.638Z,-6.90
2019-01-22T18:00:18.474Z,-6.90
2019-01-22T18:02:47.070Z,-6.90
2019-01-22T18:05:17.934Z,-6.90
2019-01-22T18:07:46.360Z,-6.90
2019-01-22T18:10:17.014Z,-6.90
2019-01-22T18:12:45.446Z,-6.80
2019-01-22T18:15:15.352Z,-6.80
2019-01-22T18:17:43.783Z,-6.80
2019-01-22T18:20:23.386Z,-6.80
2019-01-22T18:22:51.818Z,-6.80
2019-01-22T18:25:20.253Z,-6.80
2019-01-22T18:27:48.707Z,-6.80
2019-01-22T18:30:22.331Z,-6.80
2019-01-22T18:32:50.740Z,-6.80
2019-01-22T18:35:22.169Z,-6.80
2019-01-22T18:37:50.619Z,-6.90
2019-01-22T18:40:19.118Z,-6.80
2019-01-22T18:42:47.542Z,-6.80
2019-01-22T18:45:17.529Z,-6.80
2019-01-22T18:47:45.967Z,-6.80
2019-01-22T18:50:17.470Z,-6.80
2019-01-22T18:52:45.980Z,-6.80
2019-01-22T18:55:14.419Z,-6.80
2019-01-22T18:57:42.867Z,-6.70
2019-01-22T19:00:17.281Z,-6.70
2019-01-22T19:02:47.453Z,-6.80
2019-01-22T19:05:16.154Z,-6.70
2019-01-22T19:07:44.654Z,-6.80
2019-01-22T19:10:18.669Z,-6.80
2019-01-22T19:12:47.169Z,-6.90
2019-01-22T19:15:17.368Z,-6.90
2019-01-22T19:17:45.862Z,-6.90
2019-01-22T19:20:14.641Z,-6.90
2019-01-22T19:22:43.062Z,-6.90
2019-01-22T19:25:14.305Z,-6.90
2019-01-22T19:27:43.161Z,-6.90
2019-01-22T19:30:14.732Z,-6.90
2019-01-22T19:32:43.191Z,-7.00
2019-01-22T19:35:11.974Z,-7.00
2019-01-22T19:40:19.949Z,-7.00
2019-01-22T19:43:09.267Z,-6.90
2019-01-22T19:45:37.726Z,-6.90
2019-01-22T19:48:25.502Z,-7.00
2019-01-22T19:50:54.125Z,-7.00
2019-01-22T19:53:22.549Z,-7.00
2019-01-22T19:55:51.172Z,-7.00
2019-01-22T19:58:19.680Z,-7.10
2019-01-22T20:00:48.130Z,-7.00
2019-01-22T20:03:16.572Z,-7.00
2019-01-22T20:05:45.153Z,-7.10
2019-01-22T20:08:13.596Z,-7.20
2019-01-22T20:10:42.094Z,-7.10
2019-01-22T20:13:10.529Z,-7.10
2019-01-22T20:15:38.985Z,-7.10
2019-01-22T20:18:07.420Z,-7.10
2019-01-22T20:20:36.157Z,-7.10
2019-01-22T20:23:04.768Z,-7.10
2019-01-22T20:25:33.230Z,-7.10
2019-01-22T20:28:01.667Z,-7.10
2019-01-22T20:30:34.801Z,-7.10
2019-01-22T20:33:03.262Z,-7.10
2019-01-22T20:35:31.697Z,-7.10
2019-01-22T20:38:00.128Z,-7.10
2019-01-22T20:40:28.619Z,-7.10
2019-01-22T20:42:57.080Z,-7.10
2019-01-22T20:45:29.569Z,-7.10
2019-01-22T20:47:58.077Z,-7.10
2019-01-22T20:50:26.541Z,-7.10
2019-01-22T20:52:54.986Z,-7.10
2019-01-22T20:55:24.947Z,-7.10
2019-01-22T20:57:55.011Z,-7.10
2019-01-22T21:00:25.467Z,-7.10
2019-01-22T21:02:54.145Z,-7.10
2019-01-22T21:05:25.483Z,-7.20
2019-01-22T21:07:53.927Z,-7.10
2019-01-22T21:10:24.416Z,-7.10
2019-01-22T21:12:52.852Z,-7.20
2019-01-22T21:15:21.272Z,-7.10
2019-01-22T21:17:49.778Z,-7.10
2019-01-22T21:20:18.655Z,-7.20
2019-01-22T21:22:47.085Z,-7.10
2019-01-22T21:25:20.994Z,-7.20
2019-01-22T21:27:49.556Z,-7.20
2019-01-22T21:30:21.181Z,-7.20
2019-01-22T21:32:50.260Z,-7.20
2019-01-22T21:35:18.691Z,-7.20
2019-01-22T21:37:47.168Z,-7.20
2019-01-22T21:40:15.610Z,-7.30
2019-01-22T21:42:44.140Z,-7.30
2019-01-22T21:45:15.538Z,-7.10
2019-01-22T21:47:43.965Z,-7.10
2019-01-22T21:50:14.281Z,-7.10
2019-01-22T21:52:43.014Z,-7.10
2019-01-22T21:55:16.819Z,-7.20
2019-01-22T21:57:45.334Z,-7.10
2019-01-22T22:00:16.750Z,-7.10
2019-01-22T22:02:45.232Z,-7.20
2019-01-22T22:05:15.000Z,-7.10
2019-01-22T22:07:43.443Z,-7.10
2019-01-22T22:10:16.830Z,-7.00
2019-01-22T22:12:45.359Z,-7.10
2019-01-22T22:15:16.420Z,-7.10
2019-01-22T22:17:44.925Z,-7.10
2019-01-22T22:20:15.203Z,-7.10
2019-01-22T22:22:43.721Z,-7.10
2019-01-22T22:25:17.277Z,-7.10
2019-01-22T22:27:45.796Z,-7.00
2019-01-22T22:30:24.149Z,-7.00
2019-01-22T22:32:54.179Z,-7.00
2019-01-22T22:35:22.669Z,-7.10
2019-01-22T22:37:51.127Z,-7.00
2019-01-22T22:40:21.010Z,-7.00
2019-01-22T22:42:49.743Z,-6.90
2019-01-22T22:45:23.290Z,-7.00
2019-01-22T22:47:52.062Z,-6.90
2019-01-22T22:50:28.909Z,-6.90
2019-01-22T22:52:57.357Z,-6.90
2019-01-22T22:55:25.979Z,-7.00
2019-01-22T22:57:54.471Z,-7.00
2019-01-22T23:00:41.906Z,-7.20
2019-01-22T23:03:10.509Z,-7.30
2019-01-22T23:05:39.019Z,-7.30
2019-01-22T23:08:07.465Z,-7.30
2019-01-22T23:10:36.080Z,-7.20
2019-01-22T23:13:04.892Z,-7.20
2019-01-22T23:15:33.493Z,-7.20
2019-01-22T23:18:01.934Z,-7.20
2019-01-22T23:20:30.404Z,-7.20
2019-01-22T23:22:58.915Z,-7.30
2019-01-22T23:25:27.370Z,-7.20
2019-01-22T23:27:55.790Z,-7.30
2019-01-22T23:30:24.331Z,-7.30
2019-01-22T23:32:52.756Z,-7.20
2019-01-22T23:35:21.196Z,-7.10
2019-01-22T23:37:49.624Z,-7.10
2019-01-22T23:40:18.539Z,-7.20
2019-01-22T23:42:47.216Z,-7.20
2019-01-22T23:45:15.818Z,-7.20
2019-01-22T23:47:44.245Z,-7.10
2019-01-22T23:50:14.947Z,-7.20
2019-01-22T23:52:43.368Z,-7.20
2019-01-22T23:55:12.258Z,-7.30
2019-01-22T23:57:40.703Z,-7.20
